createdAt,value
2019-01-31T00:02:14.958Z,0.87
2019-01-31T00:04:49.366Z,0.98
2019-01-31T00:11:21.905Z,0.36
2019-01-31T00:14:15.709Z,0.42
2019-01-31T00:17:06.327Z,0.58
2019-01-31T00:19:43.773Z,0.69
2019-01-31T00:22:39.621Z,0.51
2019-01-31T00:25:19.033Z,0.52
2019-01-31T00:28:05.378Z,0.42
2019-01-31T00:30:45.774Z,0.53
2019-01-31T00:33:38.079Z,0.60
2019-01-31T00:36:24.483Z,0.54
2019-01-31T00:39:01.768Z,0.88
2019-01-31T00:41:42.047Z,0.88
2019-01-31T00:44:31.888Z,1.01
2019-01-31T00:47:06.013Z,1.47
2019-01-31T00:49:48.869Z,1.56
2019-01-31T00:52:20.327Z,1.38
2019-01-31T00:55:03.516Z,1.17
2019-01-31T00:57:49.807Z,1.09
2019-01-31T01:00:26.995Z,1.16
2019-01-31T01:02:58.508Z,0.84
2019-01-31T01:06:01.671Z,0.76
2019-01-31T01:08:38.641Z,0.75
2019-01-31T01:11:24.951Z,1.10
2019-01-31T01:14:02.417Z,1.10
2019-01-31T01:16:33.869Z,1.10
2019-01-31T01:19:17.221Z,0.84
2019-01-31T01:22:11.445Z,0.71
2019-01-31T01:25:40.687Z,0.67
2019-01-31T01:28:34.422Z,1.03
2019-01-31T01:31:20.824Z,0.67
2019-01-31T01:33:57.583Z,0.60
2019-01-31T01:36:35.216Z,1.05
2019-01-31T01:39:19.554Z,1.19
2019-01-31T01:42:02.833Z,1.11
2019-01-31T01:44:43.574Z,0.42
2019-01-31T01:47:15.053Z,0.34
2019-01-31T01:50:09.486Z,0.44
2019-01-31T01:52:40.956Z,0.42
2019-01-31T01:55:27.589Z,0.42
2019-01-31T01:57:59.065Z,0.63
2019-01-31T02:00:30.548Z,0.63
2019-01-31T02:03:10.932Z,0.80
2019-01-31T02:05:51.527Z,1.03
2019-01-31T02:08:53.305Z,1.24
2019-01-31T02:11:46.005Z,1.10
2019-01-31T02:14:35.151Z,1.10
2019-01-31T02:17:18.857Z,1.16
2019-01-31T02:20:11.459Z,1.37
2019-01-31T02:22:59.281Z,1.10
2019-01-31T02:25:39.394Z,0.86
2019-01-31T02:28:45.527Z,0.84
2019-01-31T02:31:20.075Z,0.70
2019-01-31T02:34:06.585Z,0.70
2019-01-31T02:36:49.577Z,0.67
2019-01-31T02:39:43.680Z,0.67
2019-01-31T02:42:24.795Z,0.91
2019-01-31T02:44:58.991Z,0.74
2019-01-31T02:47:57.905Z,0.83
2019-01-31T02:50:45.688Z,0.94
2019-01-31T02:53:19.869Z,1.25
2019-01-31T02:56:01.597Z,0.99
2019-01-31T02:58:47.945Z,1.46
2019-01-31T03:01:37.019Z,1.44
2019-01-31T03:04:23.125Z,1.30
2019-01-31T03:06:57.509Z,1.29
2019-01-31T03:10:21.253Z,1.09
2019-01-31T03:13:01.608Z,1.11
2019-01-31T03:15:49.958Z,0.90
2019-01-31T03:18:30.275Z,0.87
2019-01-31T03:21:13.324Z,0.85
2019-01-31T03:23:54.196Z,0.85
2019-01-31T03:26:44.016Z,0.76
2019-01-31T03:29:39.733Z,0.63
2019-01-31T03:32:26.279Z,0.81
2019-01-31T03:35:06.781Z,0.86
2019-01-31T03:37:41.088Z,0.61
2019-01-31T03:40:18.750Z,0.76
2019-01-31T03:43:11.469Z,0.65
2019-01-31T03:45:59.785Z,0.77
2019-01-31T03:48:50.724Z,0.62
2019-01-31T03:51:31.138Z,0.66
2019-01-31T03:54:14.388Z,0.63
2019-01-31T03:56:57.099Z,0.65
2019-01-31T03:59:28.783Z,1.24
2019-01-31T04:02:06.388Z,1.16
2019-01-31T04:04:44.011Z,0.97
2019-01-31T04:07:12.422Z,0.66
2019-01-31T04:09:40.860Z,0.65
2019-01-31T04:12:09.304Z,0.83
2019-01-31T04:14:37.700Z,0.83
2019-01-31T04:17:06.307Z,0.89
2019-01-31T04:19:34.740Z,0.75
2019-01-31T04:22:03.145Z,0.66
2019-01-31T04:24:31.596Z,0.49
2019-01-31T04:27:01.292Z,0.49
2019-01-31T04:29:29.716Z,0.52
2019-01-31T04:31:58.122Z,0.33
2019-01-31T04:34:26.539Z,0.30
2019-01-31T04:36:56.041Z,0.37
2019-01-31T04:39:24.485Z,0.37
2019-01-31T04:41:52.887Z,0.42
2019-01-31T04:44:21.503Z,0.56
2019-01-31T04:46:49.937Z,0.56
2019-01-31T04:49:18.371Z,0.44
2019-01-31T04:51:46.810Z,0.44
2019-01-31T04:54:15.249Z,0.45
2019-01-31T04:56:43.686Z,0.66
2019-01-31T04:59:12.132Z,0.77
2019-01-31T05:01:40.651Z,0.52
2019-01-31T05:04:09.109Z,0.49
2019-01-31T05:06:37.527Z,0.33
2019-01-31T05:09:07.520Z,1.03
2019-01-31T05:11:35.921Z,1.03
2019-01-31T05:14:05.494Z,1.10
2019-01-31T05:16:35.212Z,0.94
2019-01-31T05:19:03.662Z,0.86
2019-01-31T05:21:32.074Z,0.90
2019-01-31T05:24:00.560Z,1.01
2019-01-31T05:26:28.980Z,0.78
2019-01-31T05:28:57.449Z,0.84
2019-01-31T05:31:26.922Z,0.85
2019-01-31T05:33:55.326Z,0.85
2019-01-31T05:36:23.798Z,0.98
2019-01-31T05:40:02.237Z,0.98
2019-01-31T05:42:30.683Z,1.04
2019-01-31T05:44:59.078Z,0.97
2019-01-31T05:47:27.464Z,0.71
2019-01-31T05:49:55.900Z,0.66
2019-01-31T05:52:24.282Z,0.88
2019-01-31T05:58:33.507Z,0.80
2019-01-31T06:01:01.907Z,1.18
2019-01-31T06:03:30.495Z,0.90
2019-01-31T06:05:58.890Z,0.96
2019-01-31T06:08:27.359Z,0.96
2019-01-31T06:11:06.889Z,0.96
2019-01-31T06:13:26.041Z,0.89
2019-01-31T06:15:54.512Z,0.85
2019-01-31T06:18:22.958Z,1.04
2019-01-31T06:20:51.361Z,1.04
2019-01-31T06:23:21.267Z,0.40
2019-01-31T06:29:30.296Z,0.68
2019-01-31T06:31:58.750Z,0.45
2019-01-31T06:34:27.164Z,0.52
2019-01-31T06:36:55.607Z,0.41
2019-01-31T06:39:24.023Z,0.38
2019-01-31T06:41:52.429Z,0.38
2019-01-31T06:44:20.884Z,0.29
2019-01-31T06:46:49.290Z,0.48
2019-01-31T06:49:17.749Z,-0.18
2019-01-31T06:51:46.134Z,-0.18
2019-01-31T06:54:14.525Z,0.36
2019-01-31T06:56:42.952Z,0.30
2019-01-31T06:59:11.369Z,-0.09
2019-01-31T07:01:40.093Z,-0.02
2019-01-31T07:04:11.037Z,-0.04
2019-01-31T07:06:38.632Z,-0.02
2019-01-31T07:09:37.528Z,0.14
2019-01-31T07:12:05.919Z,0.28
2019-01-31T07:14:34.343Z,0.57
2019-01-31T07:17:02.784Z,0.21
2019-01-31T07:19:31.224Z,0.76
2019-01-31T07:21:59.632Z,0.41
2019-01-31T07:24:28.084Z,0.41
2019-01-31T07:26:56.502Z,0.78
2019-01-31T07:29:24.984Z,0.63
2019-01-31T07:31:53.433Z,0.58
2019-01-31T07:34:21.838Z,0.24
2019-01-31T07:36:50.339Z,0.43
2019-01-31T07:39:18.793Z,0.13
2019-01-31T07:41:47.258Z,0.33
2019-01-31T07:44:15.732Z,0.33
2019-01-31T07:46:44.214Z,0.32
2019-01-31T07:49:12.616Z,0.54
2019-01-31T07:51:41.222Z,0.29
2019-01-31T07:54:24.998Z,0.21
2019-01-31T07:56:53.436Z,0.21
2019-01-31T07:59:21.960Z,0.26
2019-01-31T08:01:50.380Z,-0.02
2019-01-31T08:04:18.818Z,0.06
2019-01-31T08:06:47.265Z,0.15
2019-01-31T08:09:15.709Z,0.29
2019-01-31T08:11:52.269Z,0.22
2019-01-31T08:14:14.311Z,-0.19
2019-01-31T08:16:42.740Z,-0.30
2019-01-31T08:19:11.175Z,-0.28
2019-01-31T08:21:41.138Z,-0.21
2019-01-31T08:24:27.692Z,-0.18
2019-01-31T08:26:56.135Z,0.36
2019-01-31T08:29:24.548Z,-0.01
2019-01-31T08:31:52.944Z,-0.06
2019-01-31T08:34:21.359Z,-0.01
2019-01-31T08:36:49.810Z,0.31
2019-01-31T08:40:28.088Z,0.43
2019-01-31T08:42:56.488Z,0.42
2019-01-31T08:45:25.070Z,0.57
2019-01-31T08:47:53.511Z,0.57
2019-01-31T08:50:29.953Z,0.85
2019-01-31T08:52:58.373Z,0.50
2019-01-31T08:56:21.837Z,0.84
2019-01-31T08:58:50.232Z,0.53
2019-01-31T09:01:18.672Z,0.71
2019-01-31T09:03:47.064Z,1.43
2019-01-31T09:06:15.489Z,0.73
2019-01-31T09:08:43.928Z,1.22
2019-01-31T09:11:12.349Z,0.91
2019-01-31T09:13:40.779Z,1.00
2019-01-31T09:16:09.210Z,0.64
2019-01-31T09:18:37.632Z,0.64
2019-01-31T09:21:14.670Z,0.78
2019-01-31T09:23:46.160Z,1.22
2019-01-31T09:26:38.319Z,0.89
2019-01-31T09:29:33.393Z,1.20
2019-01-31T09:32:07.699Z,0.88
2019-01-31T09:34:44.971Z,0.69
2019-01-31T09:37:41.903Z,1.35
2019-01-31T09:40:40.568Z,0.99
2019-01-31T09:43:31.713Z,1.35
2019-01-31T09:46:18.098Z,1.11
2019-01-31T09:49:01.587Z,1.35
2019-01-31T09:51:41.954Z,1.18
2019-01-31T09:54:16.303Z,1.19
2019-01-31T09:57:07.469Z,1.10
2019-01-31T09:59:41.715Z,1.35
2019-01-31T10:02:45.625Z,1.17
2019-01-31T10:05:35.480Z,1.27
2019-01-31T10:08:38.402Z,1.32
2019-01-31T10:11:32.395Z,1.19
2019-01-31T10:14:18.777Z,1.50
2019-01-31T10:16:59.364Z,1.35
2019-01-31T10:19:42.670Z,1.29
2019-01-31T10:22:35.242Z,1.30
2019-01-31T10:25:09.319Z,1.48
2019-01-31T10:27:41.913Z,1.43
2019-01-31T10:30:42.032Z,1.46
2019-01-31T10:33:17.527Z,1.22
2019-01-31T10:35:58.084Z,1.25
2019-01-31T10:38:35.295Z,1.70
2019-01-31T10:41:06.768Z,1.63
2019-01-31T10:43:38.467Z,1.59
2019-01-31T10:46:34.158Z,1.54
2019-01-31T10:49:42.249Z,1.42
2019-01-31T10:52:19.463Z,1.72
2019-01-31T10:55:15.393Z,1.72
2019-01-31T10:58:02.135Z,1.85
2019-01-31T11:01:01.218Z,1.71
2019-01-31T11:03:41.441Z,1.78
2019-01-31T11:06:15.930Z,2.24
2019-01-31T11:08:50.203Z,1.48
2019-01-31T11:11:24.463Z,2.26
2019-01-31T11:13:55.971Z,1.84
2019-01-31T11:16:36.395Z,2.01
2019-01-31T11:19:22.411Z,1.82
2019-01-31T11:22:07.234Z,2.09
2019-01-31T11:24:38.725Z,2.27
2019-01-31T11:27:19.855Z,2.03
2019-01-31T11:30:00.097Z,2.54
2019-01-31T11:32:43.824Z,2.04
2019-01-31T11:35:27.180Z,2.28
2019-01-31T11:38:16.687Z,2.31
2019-01-31T11:41:09.090Z,2.15
2019-01-31T11:43:48.827Z,2.44
2019-01-31T11:46:40.226Z,2.08
2019-01-31T11:49:30.750Z,2.16
2019-01-31T11:52:10.496Z,1.99
2019-01-31T11:55:36.767Z,2.49
2019-01-31T11:58:30.793Z,2.63
2019-01-31T12:00:59.271Z,2.42
2019-01-31T12:03:29.378Z,2.33
2019-01-31T12:05:57.833Z,2.65
2019-01-31T12:08:26.239Z,2.41
2019-01-31T12:11:12.617Z,2.62
2019-01-31T12:13:41.039Z,2.31
2019-01-31T12:16:09.635Z,2.76
2019-01-31T12:18:38.040Z,2.87
2019-01-31T12:21:06.474Z,3.36
2019-01-31T12:23:35.005Z,3.19
2019-01-31T12:29:44.246Z,3.09
2019-01-31T12:32:12.690Z,2.35
2019-01-31T12:34:43.124Z,2.74
2019-01-31T12:37:11.361Z,3.08
2019-01-31T12:39:39.804Z,3.19
2019-01-31T12:42:08.319Z,3.20
2019-01-31T12:44:36.741Z,3.00
2019-01-31T12:47:05.242Z,2.88
2019-01-31T12:49:33.670Z,2.84
2019-01-31T12:52:04.172Z,2.79
2019-01-31T12:54:32.246Z,2.78
2019-01-31T12:57:00.674Z,2.64
2019-01-31T12:59:31.058Z,2.77
2019-01-31T13:01:59.554Z,2.64
2019-01-31T13:04:28.268Z,2.45
2019-01-31T13:06:58.386Z,2.44
2019-01-31T13:09:28.368Z,2.46
2019-01-31T13:11:56.938Z,2.67
2019-01-31T13:14:28.338Z,2.88
2019-01-31T13:16:55.567Z,3.17
2019-01-31T13:19:24.006Z,2.90
2019-01-31T13:21:52.541Z,2.97
2019-01-31T13:24:20.941Z,3.27
2019-01-31T13:26:49.442Z,3.37
2019-01-31T13:29:17.972Z,3.33
2019-01-31T13:31:47.950Z,3.61
2019-01-31T13:34:16.381Z,4.14
2019-01-31T13:36:44.813Z,3.87
2019-01-31T13:39:13.900Z,3.68
2019-01-31T13:41:42.443Z,4.92
2019-01-31T13:44:10.918Z,4.83
2019-01-31T13:46:39.328Z,4.58
2019-01-31T13:49:08.007Z,4.44
2019-01-31T13:51:36.517Z,3.90
2019-01-31T13:54:06.088Z,3.62
2019-01-31T13:56:44.970Z,3.55
2019-01-31T13:59:04.857Z,3.40
2019-01-31T14:01:33.472Z,3.43
2019-01-31T14:04:01.893Z,3.35
2019-01-31T14:06:30.372Z,3.32
2019-01-31T14:08:58.872Z,3.23
2019-01-31T14:11:27.298Z,3.28
2019-01-31T14:13:55.680Z,3.46
2019-01-31T14:16:24.191Z,3.42
2019-01-31T14:18:53.481Z,3.37
2019-01-31T14:21:21.976Z,3.33
2019-01-31T14:23:50.497Z,3.28
2019-01-31T14:26:20.501Z,3.29
2019-01-31T14:28:48.907Z,3.39
2019-01-31T14:31:17.336Z,3.49
2019-01-31T14:33:45.778Z,3.59
2019-01-31T14:36:14.268Z,3.57
2019-01-31T14:38:42.801Z,3.71
2019-01-31T14:41:11.259Z,3.57
2019-01-31T14:43:39.657Z,3.49
2019-01-31T14:46:08.120Z,3.50
2019-01-31T14:48:36.546Z,3.29
2019-01-31T14:51:05.056Z,3.33
2019-01-31T14:53:33.504Z,3.42
2019-01-31T14:56:19.918Z,3.46
2019-01-31T14:58:48.326Z,3.30
2019-01-31T15:01:18.322Z,3.34
2019-01-31T15:03:46.722Z,3.28
2019-01-31T15:06:15.140Z,3.34
2019-01-31T15:08:43.582Z,3.18
2019-01-31T15:11:11.990Z,3.16
2019-01-31T15:13:40.415Z,3.14
2019-01-31T15:16:09.510Z,3.10
2019-01-31T15:18:37.995Z,3.28
2019-01-31T15:21:06.396Z,3.36
2019-01-31T15:23:34.849Z,3.26
2019-01-31T15:26:03.284Z,3.28
2019-01-31T15:28:31.726Z,3.24
2019-01-31T15:31:00.181Z,3.23
2019-01-31T15:33:28.599Z,3.16
2019-01-31T15:35:57.006Z,3.18
2019-01-31T15:38:25.454Z,3.11
2019-01-31T15:40:54.128Z,2.75
2019-01-31T15:43:22.564Z,2.76
2019-01-31T15:45:50.968Z,2.98
2019-01-31T15:48:19.720Z,2.75
2019-01-31T15:50:48.135Z,2.95
2019-01-31T15:53:16.546Z,2.70
2019-01-31T15:55:45.132Z,2.47
2019-01-31T15:58:13.791Z,2.55
2019-01-31T16:00:45.456Z,2.60
2019-01-31T16:03:16.205Z,2.42
2019-01-31T16:05:44.712Z,2.51
2019-01-31T16:08:13.467Z,2.58
2019-01-31T16:10:42.279Z,2.48
2019-01-31T16:13:10.715Z,2.56
2019-01-31T16:15:40.112Z,2.50
2019-01-31T16:18:10.254Z,2.18
2019-01-31T16:20:38.816Z,2.05
2019-01-31T16:23:07.766Z,2.21
2019-01-31T16:25:39.059Z,2.26
2019-01-31T16:28:08.028Z,2.29
2019-01-31T16:30:36.621Z,2.26
2019-01-31T16:33:05.777Z,2.05
2019-01-31T16:35:34.436Z,2.16
2019-01-31T16:38:03.070Z,2.04
2019-01-31T16:40:31.568Z,1.79
2019-01-31T16:43:00.129Z,1.84
2019-01-31T16:45:28.768Z,1.78
2019-01-31T16:47:57.193Z,2.03
2019-01-31T16:50:26.520Z,2.03
2019-01-31T16:52:55.030Z,1.76
2019-01-31T16:55:30.491Z,1.74
2019-01-31T16:57:59.357Z,1.97
2019-01-31T17:00:34.796Z,1.84
2019-01-31T17:03:05.188Z,1.97
2019-01-31T17:05:33.789Z,1.95
2019-01-31T17:08:02.301Z,2.13
2019-01-31T17:14:30.526Z,1.93
2019-01-31T17:16:59.079Z,1.83
2019-01-31T17:19:27.491Z,1.71
2019-01-31T17:21:55.970Z,1.69
2019-01-31T17:24:24.444Z,1.78
2019-01-31T17:30:34.474Z,1.74
2019-01-31T17:33:02.979Z,1.65
2019-01-31T17:35:31.425Z,1.77
2019-01-31T17:37:59.917Z,1.69
2019-01-31T17:40:31.687Z,1.72
2019-01-31T17:43:01.069Z,1.69
2019-01-31T17:45:30.977Z,1.65
2019-01-31T17:48:00.958Z,1.83
2019-01-31T17:50:32.155Z,1.70
2019-01-31T17:53:01.586Z,1.76
2019-01-31T17:55:30.901Z,1.60
2019-01-31T17:58:00.239Z,1.93
2019-01-31T18:00:37.760Z,1.59
2019-01-31T18:03:08.325Z,1.65
2019-01-31T18:05:37.573Z,1.78
2019-01-31T18:08:09.195Z,1.50
2019-01-31T18:17:05.217Z,1.46
2019-01-31T18:19:34.186Z,1.79
2019-01-31T18:22:02.795Z,1.69
2019-01-31T18:24:32.461Z,1.58
2019-01-31T18:30:45.086Z,1.79
2019-01-31T18:33:13.784Z,1.51
2019-01-31T18:35:42.464Z,1.54
2019-01-31T18:38:11.095Z,1.24
2019-01-31T18:40:39.776Z,1.59
2019-01-31T18:43:08.391Z,1.50
2019-01-31T18:45:40.419Z,1.54
2019-01-31T18:48:09.129Z,1.37
2019-01-31T18:50:42.769Z,1.29
2019-01-31T18:53:12.857Z,1.41
2019-01-31T18:55:42.294Z,1.33
2019-01-31T18:58:11.011Z,1.39
2019-01-31T19:00:43.603Z,1.40
2019-01-31T19:03:13.103Z,1.28
2019-01-31T19:05:44.465Z,1.14
2019-01-31T19:08:14.594Z,1.48
2019-01-31T19:10:44.716Z,1.14
2019-01-31T19:13:13.815Z,1.27
2019-01-31T19:15:42.504Z,1.12
2019-01-31T19:18:13.920Z,1.18
2019-01-31T19:20:42.646Z,1.02
2019-01-31T19:23:13.626Z,1.43
2019-01-31T19:25:42.363Z,1.24
2019-01-31T19:28:13.117Z,1.24
2019-01-31T19:30:41.689Z,1.12
2019-01-31T19:33:10.603Z,1.06
2019-01-31T19:35:42.664Z,1.33
2019-01-31T19:38:12.876Z,1.27
2019-01-31T19:40:43.291Z,1.08
2019-01-31T19:43:12.204Z,1.09
2019-01-31T19:45:50.538Z,1.04
2019-01-31T19:48:20.779Z,1.39
2019-01-31T19:50:49.496Z,1.26
2019-01-31T19:53:19.818Z,1.39
2019-01-31T19:55:48.784Z,1.38
2019-01-31T19:58:18.623Z,1.49
2019-01-31T20:00:47.238Z,1.55
2019-01-31T20:03:16.417Z,1.30
2019-01-31T20:05:45.142Z,1.46
2019-01-31T20:08:13.844Z,1.47
2019-01-31T20:10:45.559Z,1.38
2019-01-31T20:13:15.852Z,1.45
2019-01-31T20:15:44.573Z,1.38
2019-01-31T20:18:14.816Z,1.42
2019-01-31T20:20:45.446Z,1.50
2019-01-31T20:23:15.618Z,1.46
2019-01-31T20:25:44.348Z,1.44
2019-01-31T20:28:14.976Z,1.56
2019-01-31T20:30:43.695Z,1.59
2019-01-31T20:33:12.492Z,1.55
2019-01-31T20:35:41.442Z,1.56
2019-01-31T20:38:12.653Z,1.69
2019-01-31T20:40:41.446Z,1.76
2019-01-31T20:43:13.229Z,1.69
2019-01-31T20:45:45.951Z,1.80
2019-01-31T20:48:14.721Z,1.93
2019-01-31T20:50:43.355Z,1.93
2019-01-31T20:53:11.843Z,1.87
2019-01-31T20:55:41.825Z,1.95
2019-01-31T20:58:10.485Z,1.92
2019-01-31T21:00:41.250Z,1.98
2019-01-31T21:03:10.487Z,2.03
2019-01-31T21:05:41.492Z,1.91
2019-01-31T21:08:11.554Z,2.01
2019-01-31T21:10:41.937Z,1.88
2019-01-31T21:13:11.287Z,1.80
2019-01-31T21:15:39.928Z,1.76
2019-01-31T21:18:09.966Z,1.80
2019-01-31T21:20:39.580Z,1.74
2019-01-31T21:23:10.439Z,1.62
2019-01-31T21:25:39.848Z,1.70
2019-01-31T21:28:11.625Z,1.67
2019-01-31T21:30:40.664Z,1.78
2019-01-31T21:33:10.842Z,1.73
2019-01-31T21:35:41.294Z,1.73
2019-01-31T21:38:11.644Z,1.62
2019-01-31T21:40:40.343Z,1.80
2019-01-31T21:43:09.014Z,2.04
2019-01-31T21:45:37.628Z,2.39
2019-01-31T21:48:06.656Z,2.36
2019-01-31T21:50:35.478Z,2.47
2019-01-31T21:53:04.425Z,2.06
2019-01-31T21:55:33.149Z,1.94
2019-01-31T21:58:08.225Z,2.17
2019-01-31T22:00:36.943Z,2.08
2019-01-31T22:03:06.406Z,1.98
2019-01-31T22:05:35.066Z,1.94
2019-01-31T22:08:03.640Z,1.94
2019-01-31T22:10:32.129Z,1.76
2019-01-31T22:13:02.693Z,2.08
2019-01-31T22:15:33.845Z,1.90
2019-01-31T22:18:02.448Z,2.20
2019-01-31T22:20:30.908Z,2.21
2019-01-31T22:22:59.343Z,2.24
2019-01-31T22:25:27.847Z,2.19
2019-01-31T22:27:56.290Z,2.13
2019-01-31T22:30:33.065Z,2.11
2019-01-31T22:33:01.827Z,1.92
2019-01-31T22:35:30.328Z,1.88
2019-01-31T22:37:58.745Z,1.98
2019-01-31T22:40:27.507Z,1.96
2019-01-31T22:42:55.913Z,1.93
2019-01-31T22:45:25.826Z,2.04
2019-01-31T22:47:54.268Z,1.88
2019-01-31T22:50:24.267Z,1.89
2019-01-31T22:52:52.812Z,1.86
2019-01-31T22:55:26.410Z,1.74
2019-01-31T22:57:54.899Z,1.84
2019-01-31T23:00:45.921Z,1.77
2019-01-31T23:03:14.457Z,1.99
2019-01-31T23:05:43.224Z,1.88
2019-01-31T23:08:11.646Z,1.85
2019-01-31T23:10:40.108Z,1.80
2019-01-31T23:13:08.548Z,1.93
2019-01-31T23:15:36.952Z,1.74
2019-01-31T23:18:06.403Z,1.72
2019-01-31T23:20:36.366Z,2.12
2019-01-31T23:23:04.827Z,1.84
2019-01-31T23:25:40.341Z,1.88
2019-01-31T23:28:03.398Z,2.18
2019-01-31T23:30:33.714Z,2.39
2019-01-31T23:33:02.121Z,2.19
2019-01-31T23:35:30.530Z,2.43
2019-01-31T23:37:58.981Z,2.24
2019-01-31T23:40:27.394Z,2.51
2019-01-31T23:42:55.816Z,2.55
2019-01-31T23:45:24.380Z,2.54
2019-01-31T23:47:52.781Z,2.46
2019-01-31T23:50:21.549Z,2.55
2019-01-31T23:52:49.937Z,2.10
2019-01-31T23:55:18.869Z,2.39
2019-01-31T23:57:47.293Z,2.52
